sensor_id;sensor_type;location;lat;lon;timestamp;P1;durP1;ratioP1;P2;durP2;ratioP2
69956;SDS011;57283;54.816;9.482;2023-02-28T00:01:06;5.28;;;2.28;;
69956;SDS011;57283;54.816;9.482;2023-02-28T00:03:34;5.90;;;2.10;;
69956;SDS011;57283;54.816;9.482;2023-02-28T00:06:02;6.03;;;2.50;;
69956;SDS011;57283;54.816;9.482;2023-02-28T00:08:31;6.65;;;2.35;;
69956;SDS011;57283;54.816;9.482;2023-02-28T00:11:01;5.95;;;2.03;;
69956;SDS011;57283;54.816;9.482;2023-02-28T00:13:30;6.65;;;2.53;;
69956;SDS011;57283;54.816;9.482;2023-02-28T00:15:59;5.43;;;2.27;;
69956;SDS011;57283;54.816;9.482;2023-02-28T00:18:27;6.25;;;2.58;;
69956;SDS011;57283;54.816;9.482;2023-02-28T00:20:56;6.57;;;2.30;;
69956;SDS011;57283;54.816;9.482;2023-02-28T00:23:25;11.45;;;2.70;;
69956;SDS011;57283;54.816;9.482;2023-02-28T00:25:53;9.00;;;2.47;;
69956;SDS011;57283;54.816;9.482;2023-02-28T00:28:22;7.80;;;2.37;;
69956;SDS011;57283;54.816;9.482;2023-02-28T00:30:50;6.18;;;2.72;;
69956;SDS011;57283;54.816;9.482;2023-02-28T00:33:18;5.88;;;2.40;;
69956;SDS011;57283;54.816;9.482;2023-02-28T00:35:46;7.35;;;2.90;;
69956;SDS011;57283;54.816;9.482;2023-02-28T00:38:15;8.50;;;2.85;;
69956;SDS011;57283;54.816;9.482;2023-02-28T00:40:43;7.43;;;2.60;;
69956;SDS011;57283;54.816;9.482;2023-02-28T00:43:11;6.32;;;2.70;;
69956;SDS011;57283;54.816;9.482;2023-02-28T00:45:40;7.07;;;2.67;;
69956;SDS011;57283;54.816;9.482;2023-02-28T00:48:08;5.78;;;2.67;;
69956;SDS011;57283;54.816;9.482;2023-02-28T00:50:36;8.05;;;2.45;;
69956;SDS011;57283;54.816;9.482;2023-02-28T00:53:03;6.53;;;2.83;;
69956;SDS011;57283;54.816;9.482;2023-02-28T00:55:31;7.93;;;2.72;;
69956;SDS011;57283;54.816;9.482;2023-02-28T00:57:59;8.40;;;3.00;;
69956;SDS011;57283;54.816;9.482;2023-02-28T01:00:27;6.82;;;2.70;;
69956;SDS011;57283;54.816;9.482;2023-02-28T01:02:56;7.40;;;2.92;;
69956;SDS011;57283;54.816;9.482;2023-02-28T01:05:24;5.93;;;2.60;;
69956;SDS011;57283;54.816;9.482;2023-02-28T01:07:51;7.00;;;2.83;;
69956;SDS011;57283;54.816;9.482;2023-02-28T01:10:19;6.68;;;2.47;;
69956;SDS011;57283;54.816;9.482;2023-02-28T01:12:47;7.15;;;3.00;;
69956;SDS011;57283;54.816;9.482;2023-02-28T01:15:15;10.18;;;3.58;;
69956;SDS011;57283;54.816;9.482;2023-02-28T01:17:43;9.37;;;3.17;;
69956;SDS011;57283;54.816;9.482;2023-02-28T01:20:13;7.93;;;3.05;;
69956;SDS011;57283;54.816;9.482;2023-02-28T01:22:41;9.25;;;3.03;;
69956;SDS011;57283;54.816;9.482;2023-02-28T01:25:08;7.43;;;3.17;;
69956;SDS011;57283;54.816;9.482;2023-02-28T01:27:36;7.60;;;2.90;;
69956;SDS011;57283;54.816;9.482;2023-02-28T01:30:06;6.93;;;3.40;;
69956;SDS011;57283;54.816;9.482;2023-02-28T01:32:35;8.00;;;3.00;;
69956;SDS011;57283;54.816;9.482;2023-02-28T01:35:03;7.30;;;3.22;;
69956;SDS011;57283;54.816;9.482;2023-02-28T01:37:32;7.35;;;2.85;;
69956;SDS011;57283;54.816;9.482;2023-02-28T01:40:00;10.77;;;3.38;;
69956;SDS011;57283;54.816;9.482;2023-02-28T01:42:32;6.90;;;2.90;;
69956;SDS011;57283;54.816;9.482;2023-02-28T01:45:02;9.95;;;3.63;;
69956;SDS011;57283;54.816;9.482;2023-02-28T01:47:35;5.75;;;3.05;;
69956;SDS011;57283;54.816;9.482;2023-02-28T01:50:07;6.47;;;2.53;;
69956;SDS011;57283;54.816;9.482;2023-02-28T01:52:41;9.43;;;3.22;;
69956;SDS011;57283;54.816;9.482;2023-02-28T01:55:10;7.07;;;2.90;;
69956;SDS011;57283;54.816;9.482;2023-02-28T01:57:40;6.60;;;2.97;;
69956;SDS011;57283;54.816;9.482;2023-02-28T02:00:13;8.05;;;3.03;;
69956;SDS011;57283;54.816;9.482;2023-02-28T02:02:43;6.68;;;3.08;;
69956;SDS011;57283;54.816;9.482;2023-02-28T02:05:14;7.72;;;3.05;;
69956;SDS011;57283;54.816;9.482;2023-02-28T02:07:45;8.23;;;3.47;;
69956;SDS011;57283;54.816;9.482;2023-02-28T02:10:16;10.88;;;3.08;;
69956;SDS011;57283;54.816;9.482;2023-02-28T02:15:53;7.38;;;2.78;;
69956;SDS011;57283;54.816;9.482;2023-02-28T02:18:30;7.07;;;3.20;;
69956;SDS011;57283;54.816;9.482;2023-02-28T02:21:19;10.30;;;3.63;;
69956;SDS011;57283;54.816;9.482;2023-02-28T02:27:17;9.48;;;3.90;;
69956;SDS011;57283;54.816;9.482;2023-02-28T02:32:49;7.50;;;3.03;;
69956;SDS011;57283;54.816;9.482;2023-02-28T02:35:32;8.13;;;2.87;;
69956;SDS011;57283;54.816;9.482;2023-02-28T02:38:08;7.38;;;2.88;;
69956;SDS011;57283;54.816;9.482;2023-02-28T02:40:42;8.45;;;3.00;;
69956;SDS011;57283;54.816;9.482;2023-02-28T02:43:16;7.93;;;2.97;;
69956;SDS011;57283;54.816;9.482;2023-02-28T02:45:47;7.78;;;3.13;;
69956;SDS011;57283;54.816;9.482;2023-02-28T02:48:19;7.33;;;2.80;;
69956;SDS011;57283;54.816;9.482;2023-02-28T02:50:54;8.68;;;2.88;;
69956;SDS011;57283;54.816;9.482;2023-02-28T02:53:26;7.93;;;3.15;;
69956;SDS011;57283;54.816;9.482;2023-02-28T02:55:57;7.35;;;2.72;;
69956;SDS011;57283;54.816;9.482;2023-02-28T02:58:29;6.97;;;2.90;;
69956;SDS011;57283;54.816;9.482;2023-02-28T03:01:01;9.20;;;3.07;;
69956;SDS011;57283;54.816;9.482;2023-02-28T03:03:32;9.68;;;3.55;;
69956;SDS011;57283;54.816;9.482;2023-02-28T03:06:03;8.05;;;2.78;;
69956;SDS011;57283;54.816;9.482;2023-02-28T03:08:33;9.80;;;4.13;;
69956;SDS011;57283;54.816;9.482;2023-02-28T03:11:03;9.30;;;2.95;;
69956;SDS011;57283;54.816;9.482;2023-02-28T03:16:38;7.22;;;2.60;;
69956;SDS011;57283;54.816;9.482;2023-02-28T03:19:19;8.98;;;3.53;;
69956;SDS011;57283;54.816;9.482;2023-02-28T03:22:01;7.38;;;3.08;;
69956;SDS011;57283;54.816;9.482;2023-02-28T03:24:47;6.50;;;2.90;;
69956;SDS011;57283;54.816;9.482;2023-02-28T03:27:23;9.47;;;3.10;;
69956;SDS011;57283;54.816;9.482;2023-02-28T03:29:57;5.32;;;2.70;;
69956;SDS011;57283;54.816;9.482;2023-02-28T03:32:28;7.65;;;3.10;;
69956;SDS011;57283;54.816;9.482;2023-02-28T03:35:01;8.05;;;2.72;;
69956;SDS011;57283;54.816;9.482;2023-02-28T03:37:37;8.75;;;3.22;;
69956;SDS011;57283;54.816;9.482;2023-02-28T03:40:08;11.37;;;3.43;;
69956;SDS011;57283;54.816;9.482;2023-02-28T03:42:42;8.68;;;3.85;;
69956;SDS011;57283;54.816;9.482;2023-02-28T03:45:14;9.90;;;3.42;;
69956;SDS011;57283;54.816;9.482;2023-02-28T03:47:47;9.85;;;3.13;;
69956;SDS011;57283;54.816;9.482;2023-02-28T03:50:18;7.47;;;2.80;;
69956;SDS011;57283;54.816;9.482;2023-02-28T03:52:51;8.87;;;2.80;;
69956;SDS011;57283;54.816;9.482;2023-02-28T03:55:26;9.38;;;3.08;;
69956;SDS011;57283;54.816;9.482;2023-02-28T03:57:58;8.75;;;3.63;;
69956;SDS011;57283;54.816;9.482;2023-02-28T04:00:31;9.27;;;3.28;;
69956;SDS011;57283;54.816;9.482;2023-02-28T04:03:04;8.20;;;3.20;;
69956;SDS011;57283;54.816;9.482;2023-02-28T04:05:32;10.23;;;3.70;;
69956;SDS011;57283;54.816;9.482;2023-02-28T04:08:13;8.55;;;3.15;;
69956;SDS011;57283;54.816;9.482;2023-02-28T04:10:41;7.60;;;3.20;;
69956;SDS011;57283;54.816;9.482;2023-02-28T04:13:15;7.95;;;3.50;;
69956;SDS011;57283;54.816;9.482;2023-02-28T04:15:43;9.48;;;3.65;;
69956;SDS011;57283;54.816;9.482;2023-02-28T04:18:11;8.93;;;3.23;;
69956;SDS011;57283;54.816;9.482;2023-02-28T04:20:39;9.93;;;4.13;;
69956;SDS011;57283;54.816;9.482;2023-02-28T04:23:07;10.63;;;3.47;;
69956;SDS011;57283;54.816;9.482;2023-02-28T04:25:36;8.77;;;3.33;;
69956;SDS011;57283;54.816;9.482;2023-02-28T04:28:06;8.00;;;3.40;;
69956;SDS011;57283;54.816;9.482;2023-02-28T04:30:34;8.70;;;3.37;;
69956;SDS011;57283;54.816;9.482;2023-02-28T04:33:02;7.90;;;3.05;;
69956;SDS011;57283;54.816;9.482;2023-02-28T04:35:30;10.82;;;4.07;;
69956;SDS011;57283;54.816;9.482;2023-02-28T04:37:58;10.52;;;4.00;;
69956;SDS011;57283;54.816;9.482;2023-02-28T04:40:26;9.02;;;3.55;;
69956;SDS011;57283;54.816;9.482;2023-02-28T04:42:55;11.23;;;3.60;;
69956;SDS011;57283;54.816;9.482;2023-02-28T04:45:23;7.97;;;3.00;;
69956;SDS011;57283;54.816;9.482;2023-02-28T04:47:50;11.25;;;3.20;;
69956;SDS011;57283;54.816;9.482;2023-02-28T04:50:19;9.45;;;3.60;;
69956;SDS011;57283;54.816;9.482;2023-02-28T04:52:47;9.25;;;4.15;;
69956;SDS011;57283;54.816;9.482;2023-02-28T04:55:15;8.13;;;3.70;;
69956;SDS011;57283;54.816;9.482;2023-02-28T04:57:43;9.82;;;3.50;;
69956;SDS011;57283;54.816;9.482;2023-02-28T05:00:12;12.68;;;3.80;;
69956;SDS011;57283;54.816;9.482;2023-02-28T05:02:43;10.32;;;3.95;;
69956;SDS011;57283;54.816;9.482;2023-02-28T05:05:11;10.32;;;4.40;;
69956;SDS011;57283;54.816;9.482;2023-02-28T05:07:44;10.03;;;3.90;;
69956;SDS011;57283;54.816;9.482;2023-02-28T05:10:12;10.60;;;3.92;;
69956;SDS011;57283;54.816;9.482;2023-02-28T05:12:40;10.85;;;3.90;;
69956;SDS011;57283;54.816;9.482;2023-02-28T05:15:08;13.48;;;4.70;;
69956;SDS011;57283;54.816;9.482;2023-02-28T05:17:41;11.50;;;4.72;;
69956;SDS011;57283;54.816;9.482;2023-02-28T05:20:10;10.30;;;4.23;;
69956;SDS011;57283;54.816;9.482;2023-02-28T05:22:41;9.73;;;4.18;;
69956;SDS011;57283;54.816;9.482;2023-02-28T05:25:10;8.30;;;3.58;;
69956;SDS011;57283;54.816;9.482;2023-02-28T05:27:42;12.02;;;3.92;;
69956;SDS011;57283;54.816;9.482;2023-02-28T05:30:10;10.93;;;4.18;;
69956;SDS011;57283;54.816;9.482;2023-02-28T05:32:40;7.30;;;3.20;;
69956;SDS011;57283;54.816;9.482;2023-02-28T05:35:09;9.85;;;4.15;;
69956;SDS011;57283;54.816;9.482;2023-02-28T05:37:38;12.70;;;4.22;;
69956;SDS011;57283;54.816;9.482;2023-02-28T05:40:07;14.40;;;4.32;;
69956;SDS011;57283;54.816;9.482;2023-02-28T05:42:36;10.23;;;4.43;;
69956;SDS011;57283;54.816;9.482;2023-02-28T05:45:05;8.53;;;3.10;;
69956;SDS011;57283;54.816;9.482;2023-02-28T05:47:34;12.13;;;4.30;;
69956;SDS011;57283;54.816;9.482;2023-02-28T05:50:04;11.25;;;4.65;;
69956;SDS011;57283;54.816;9.482;2023-02-28T05:52:33;12.73;;;4.40;;
69956;SDS011;57283;54.816;9.482;2023-02-28T05:55:01;11.75;;;4.95;;
69956;SDS011;57283;54.816;9.482;2023-02-28T05:57:29;14.13;;;4.63;;
69956;SDS011;57283;54.816;9.482;2023-02-28T05:59:56;13.90;;;4.75;;
69956;SDS011;57283;54.816;9.482;2023-02-28T06:02:24;12.80;;;5.07;;
69956;SDS011;57283;54.816;9.482;2023-02-28T06:04:52;11.45;;;4.53;;
69956;SDS011;57283;54.816;9.482;2023-02-28T06:07:21;13.88;;;5.07;;
69956;SDS011;57283;54.816;9.482;2023-02-28T06:09:49;10.10;;;4.57;;
69956;SDS011;57283;54.816;9.482;2023-02-28T06:12:17;11.40;;;5.10;;
69956;SDS011;57283;54.816;9.482;2023-02-28T06:14:45;12.98;;;5.47;;
69956;SDS011;57283;54.816;9.482;2023-02-28T06:17:13;12.65;;;5.93;;
69956;SDS011;57283;54.816;9.482;2023-02-28T06:19:41;12.23;;;5.20;;
69956;SDS011;57283;54.816;9.482;2023-02-28T06:22:08;11.43;;;5.53;;
69956;SDS011;57283;54.816;9.482;2023-02-28T06:24:37;14.60;;;6.00;;
69956;SDS011;57283;54.816;9.482;2023-02-28T06:27:05;14.30;;;6.00;;
69956;SDS011;57283;54.816;9.482;2023-02-28T06:29:34;15.32;;;5.35;;
69956;SDS011;57283;54.816;9.482;2023-02-28T06:32:02;14.52;;;6.05;;
69956;SDS011;57283;54.816;9.482;2023-02-28T06:34:30;14.30;;;5.93;;
69956;SDS011;57283;54.816;9.482;2023-02-28T06:36:58;13.10;;;5.57;;
69956;SDS011;57283;54.816;9.482;2023-02-28T06:39:28;14.25;;;6.43;;
69956;SDS011;57283;54.816;9.482;2023-02-28T06:41:57;14.35;;;6.45;;
69956;SDS011;57283;54.816;9.482;2023-02-28T06:44:25;11.82;;;5.72;;
69956;SDS011;57283;54.816;9.482;2023-02-28T06:46:53;14.90;;;5.67;;
69956;SDS011;57283;54.816;9.482;2023-02-28T06:49:21;10.65;;;5.55;;
69956;SDS011;57283;54.816;9.482;2023-02-28T06:51:49;13.18;;;6.30;;
69956;SDS011;57283;54.816;9.482;2023-02-28T06:54:16;15.10;;;7.18;;
69956;SDS011;57283;54.816;9.482;2023-02-28T06:56:44;12.02;;;6.10;;
69956;SDS011;57283;54.816;9.482;2023-02-28T06:59:14;14.97;;;6.40;;
69956;SDS011;57283;54.816;9.482;2023-02-28T07:01:42;12.75;;;7.05;;
69956;SDS011;57283;54.816;9.482;2023-02-28T07:04:10;13.55;;;7.13;;
69956;SDS011;57283;54.816;9.482;2023-02-28T07:06:39;12.52;;;7.03;;
69956;SDS011;57283;54.816;9.482;2023-02-28T07:09:07;13.05;;;6.72;;
69956;SDS011;57283;54.816;9.482;2023-02-28T07:11:36;11.63;;;6.23;;
69956;SDS011;57283;54.816;9.482;2023-02-28T07:14:04;12.23;;;7.05;;
69956;SDS011;57283;54.816;9.482;2023-02-28T07:16:34;14.93;;;7.35;;
69956;SDS011;57283;54.816;9.482;2023-02-28T07:19:03;14.13;;;7.50;;
69956;SDS011;57283;54.816;9.482;2023-02-28T07:21:31;13.05;;;7.57;;
69956;SDS011;57283;54.816;9.482;2023-02-28T07:23:58;14.23;;;7.43;;
69956;SDS011;57283;54.816;9.482;2023-02-28T07:26:26;15.27;;;8.27;;
69956;SDS011;57283;54.816;9.482;2023-02-28T07:28:54;16.00;;;8.20;;
69956;SDS011;57283;54.816;9.482;2023-02-28T07:31:22;15.18;;;8.32;;
69956;SDS011;57283;54.816;9.482;2023-02-28T07:33:51;13.80;;;7.78;;
69956;SDS011;57283;54.816;9.482;2023-02-28T07:36:20;15.70;;;8.63;;
69956;SDS011;57283;54.816;9.482;2023-02-28T07:38:48;17.35;;;9.05;;
69956;SDS011;57283;54.816;9.482;2023-02-28T07:41:17;16.73;;;8.45;;
69956;SDS011;57283;54.816;9.482;2023-02-28T07:43:46;14.05;;;8.00;;
69956;SDS011;57283;54.816;9.482;2023-02-28T07:46:14;14.18;;;8.38;;
69956;SDS011;57283;54.816;9.482;2023-02-28T07:48:44;28.63;;;9.83;;
69956;SDS011;57283;54.816;9.482;2023-02-28T07:51:13;14.63;;;8.10;;
69956;SDS011;57283;54.816;9.482;2023-02-28T07:53:41;17.80;;;8.82;;
69956;SDS011;57283;54.816;9.482;2023-02-28T07:56:09;14.38;;;7.97;;
69956;SDS011;57283;54.816;9.482;2023-02-28T07:58:37;14.27;;;8.20;;
69956;SDS011;57283;54.816;9.482;2023-02-28T08:01:06;18.37;;;9.23;;
69956;SDS011;57283;54.816;9.482;2023-02-28T08:03:34;16.17;;;8.80;;
69956;SDS011;57283;54.816;9.482;2023-02-28T08:06:03;14.30;;;8.20;;
69956;SDS011;57283;54.816;9.482;2023-02-28T08:08:33;14.65;;;8.63;;
69956;SDS011;57283;54.816;9.482;2023-02-28T08:11:02;15.98;;;8.43;;
69956;SDS011;57283;54.816;9.482;2023-02-28T08:13:31;13.63;;;7.90;;
69956;SDS011;57283;54.816;9.482;2023-02-28T08:16:00;14.63;;;8.35;;
69956;SDS011;57283;54.816;9.482;2023-02-28T08:18:29;13.98;;;7.90;;
69956;SDS011;57283;54.816;9.482;2023-02-28T08:20:57;13.40;;;7.72;;
69956;SDS011;57283;54.816;9.482;2023-02-28T08:23:25;15.45;;;7.88;;
69956;SDS011;57283;54.816;9.482;2023-02-28T08:25:54;14.13;;;7.77;;
69956;SDS011;57283;54.816;9.482;2023-02-28T08:28:23;17.08;;;8.98;;
69956;SDS011;57283;54.816;9.482;2023-02-28T08:30:52;16.00;;;8.65;;
69956;SDS011;57283;54.816;9.482;2023-02-28T08:33:21;14.13;;;8.40;;
69956;SDS011;57283;54.816;9.482;2023-02-28T08:35:51;15.52;;;8.20;;
69956;SDS011;57283;54.816;9.482;2023-02-28T08:38:20;14.47;;;8.93;;
69956;SDS011;57283;54.816;9.482;2023-02-28T08:40:48;14.25;;;8.55;;
69956;SDS011;57283;54.816;9.482;2023-02-28T08:43:17;15.00;;;8.32;;
69956;SDS011;57283;54.816;9.482;2023-02-28T08:45:45;13.73;;;8.35;;
69956;SDS011;57283;54.816;9.482;2023-02-28T08:48:13;14.48;;;9.02;;
69956;SDS011;57283;54.816;9.482;2023-02-28T08:51:02;13.80;;;8.43;;
69956;SDS011;57283;54.816;9.482;2023-02-28T08:53:34;11.52;;;7.70;;
69956;SDS011;57283;54.816;9.482;2023-02-28T08:56:02;13.60;;;8.20;;
69956;SDS011;57283;54.816;9.482;2023-02-28T08:58:33;12.18;;;7.88;;
69956;SDS011;57283;54.816;9.482;2023-02-28T09:01:06;11.10;;;7.80;;
69956;SDS011;57283;54.816;9.482;2023-02-28T09:03:35;11.47;;;7.20;;
69956;SDS011;57283;54.816;9.482;2023-02-28T09:06:04;10.98;;;7.45;;
69956;SDS011;57283;54.816;9.482;2023-02-28T09:08:32;11.10;;;7.57;;
69956;SDS011;57283;54.816;9.482;2023-02-28T09:11:00;11.30;;;8.02;;
69956;SDS011;57283;54.816;9.482;2023-02-28T09:13:29;12.65;;;8.25;;
69956;SDS011;57283;54.816;9.482;2023-02-28T09:16:00;11.90;;;8.00;;
69956;SDS011;57283;54.816;9.482;2023-02-28T09:18:29;11.38;;;7.47;;
69956;SDS011;57283;54.816;9.482;2023-02-28T09:20:57;10.50;;;7.25;;
69956;SDS011;57283;54.816;9.482;2023-02-28T09:23:25;9.13;;;6.20;;
69956;SDS011;57283;54.816;9.482;2023-02-28T09:25:53;9.75;;;6.32;;
69956;SDS011;57283;54.816;9.482;2023-02-28T09:28:22;7.63;;;6.23;;
69956;SDS011;57283;54.816;9.482;2023-02-28T09:30:50;9.85;;;6.70;;
69956;SDS011;57283;54.816;9.482;2023-02-28T09:33:22;9.13;;;7.32;;
69956;SDS011;57283;54.816;9.482;2023-02-28T09:35:51;9.98;;;6.90;;
69956;SDS011;57283;54.816;9.482;2023-02-28T09:38:26;10.18;;;7.18;;
69956;SDS011;57283;54.816;9.482;2023-02-28T09:40:55;9.97;;;7.37;;
69956;SDS011;57283;54.816;9.482;2023-02-28T09:43:26;8.80;;;6.60;;
69956;SDS011;57283;54.816;9.482;2023-02-28T09:45:56;9.10;;;6.68;;
69956;SDS011;57283;54.816;9.482;2023-02-28T09:48:34;8.52;;;6.78;;
69956;SDS011;57283;54.816;9.482;2023-02-28T09:51:09;10.77;;;6.82;;
69956;SDS011;57283;54.816;9.482;2023-02-28T09:53:43;12.87;;;8.53;;
69956;SDS011;57283;54.816;9.482;2023-02-28T09:56:19;8.70;;;7.32;;
69956;SDS011;57283;54.816;9.482;2023-02-28T09:58:55;8.32;;;6.80;;
69956;SDS011;57283;54.816;9.482;2023-02-28T10:01:28;9.50;;;7.20;;
69956;SDS011;57283;54.816;9.482;2023-02-28T10:04:05;9.20;;;6.97;;
69956;SDS011;57283;54.816;9.482;2023-02-28T10:06:39;8.67;;;7.03;;
69956;SDS011;57283;54.816;9.482;2023-02-28T10:09:13;8.77;;;6.80;;
69956;SDS011;57283;54.816;9.482;2023-02-28T10:11:45;8.18;;;6.45;;
69956;SDS011;57283;54.816;9.482;2023-02-28T10:14:14;8.85;;;6.40;;
69956;SDS011;57283;54.816;9.482;2023-02-28T10:16:44;9.63;;;7.13;;
69956;SDS011;57283;54.816;9.482;2023-02-28T10:19:20;9.43;;;6.43;;
69956;SDS011;57283;54.816;9.482;2023-02-28T10:21:59;8.88;;;7.15;;
69956;SDS011;57283;54.816;9.482;2023-02-28T10:24:30;9.65;;;7.40;;
69956;SDS011;57283;54.816;9.482;2023-02-28T10:27:01;9.40;;;6.88;;
69956;SDS011;57283;54.816;9.482;2023-02-28T10:29:38;8.48;;;6.90;;
69956;SDS011;57283;54.816;9.482;2023-02-28T10:32:10;8.50;;;6.67;;
69956;SDS011;57283;54.816;9.482;2023-02-28T10:34:43;11.18;;;7.70;;
69956;SDS011;57283;54.816;9.482;2023-02-28T10:37:11;10.88;;;7.82;;
69956;SDS011;57283;54.816;9.482;2023-02-28T10:39:40;10.55;;;7.90;;
69956;SDS011;57283;54.816;9.482;2023-02-28T10:42:20;9.70;;;7.80;;
69956;SDS011;57283;54.816;9.482;2023-02-28T10:45:04;9.87;;;8.03;;
69956;SDS011;57283;54.816;9.482;2023-02-28T10:47:40;10.48;;;7.97;;
69956;SDS011;57283;54.816;9.482;2023-02-28T10:50:27;10.50;;;8.23;;
69956;SDS011;57283;54.816;9.482;2023-02-28T10:53:05;10.32;;;8.32;;
69956;SDS011;57283;54.816;9.482;2023-02-28T10:55:59;10.30;;;7.35;;
69956;SDS011;57283;54.816;9.482;2023-02-28T10:58:29;9.77;;;7.37;;
69956;SDS011;57283;54.816;9.482;2023-02-28T11:00:59;9.82;;;6.70;;
69956;SDS011;57283;54.816;9.482;2023-02-28T11:03:31;10.95;;;6.97;;
69956;SDS011;57283;54.816;9.482;2023-02-28T11:06:05;8.23;;;6.47;;
69956;SDS011;57283;54.816;9.482;2023-02-28T11:08:42;9.25;;;7.22;;
69956;SDS011;57283;54.816;9.482;2023-02-28T11:11:12;9.73;;;6.77;;
69956;SDS011;57283;54.816;9.482;2023-02-28T11:13:41;9.02;;;6.38;;
69956;SDS011;57283;54.816;9.482;2023-02-28T11:16:09;10.18;;;6.53;;
69956;SDS011;57283;54.816;9.482;2023-02-28T11:18:40;10.38;;;6.47;;
69956;SDS011;57283;54.816;9.482;2023-02-28T11:21:16;10.85;;;6.05;;
69956;SDS011;57283;54.816;9.482;2023-02-28T11:23:48;8.93;;;5.80;;
69956;SDS011;57283;54.816;9.482;2023-02-28T11:29:05;10.68;;;6.15;;
69956;SDS011;57283;54.816;9.482;2023-02-28T11:31:38;10.05;;;5.70;;
69956;SDS011;57283;54.816;9.482;2023-02-28T11:34:22;9.82;;;6.22;;
69956;SDS011;57283;54.816;9.482;2023-02-28T11:36:55;10.80;;;5.90;;
69956;SDS011;57283;54.816;9.482;2023-02-28T11:39:25;9.45;;;5.90;;
69956;SDS011;57283;54.816;9.482;2023-02-28T11:41:58;9.98;;;5.97;;
69956;SDS011;57283;54.816;9.482;2023-02-28T11:44:48;9.82;;;6.05;;
69956;SDS011;57283;54.816;9.482;2023-02-28T11:47:28;9.60;;;5.97;;
69956;SDS011;57283;54.816;9.482;2023-02-28T11:50:07;10.40;;;5.97;;
69956;SDS011;57283;54.816;9.482;2023-02-28T11:52:47;10.52;;;6.65;;
69956;SDS011;57283;54.816;9.482;2023-02-28T11:55:20;11.10;;;6.82;;
69956;SDS011;57283;54.816;9.482;2023-02-28T11:58:02;9.60;;;6.63;;
69956;SDS011;57283;54.816;9.482;2023-02-28T12:00:55;9.88;;;7.13;;
69956;SDS011;57283;54.816;9.482;2023-02-28T12:03:34;8.80;;;6.80;;
69956;SDS011;57283;54.816;9.482;2023-02-28T12:06:15;9.77;;;6.80;;
69956;SDS011;57283;54.816;9.482;2023-02-28T12:08:53;10.23;;;8.25;;
69956;SDS011;57283;54.816;9.482;2023-02-28T12:11:33;10.13;;;7.45;;
69956;SDS011;57283;54.816;9.482;2023-02-28T12:17:17;9.90;;;6.90;;
69956;SDS011;57283;54.816;9.482;2023-02-28T12:19:57;9.43;;;6.20;;
69956;SDS011;57283;54.816;9.482;2023-02-28T12:22:30;10.20;;;6.82;;
69956;SDS011;57283;54.816;9.482;2023-02-28T12:25:10;9.43;;;7.25;;
69956;SDS011;57283;54.816;9.482;2023-02-28T12:28:02;8.90;;;6.65;;
69956;SDS011;57283;54.816;9.482;2023-02-28T12:30:31;9.73;;;7.33;;
69956;SDS011;57283;54.816;9.482;2023-02-28T12:33:02;10.38;;;8.07;;
69956;SDS011;57283;54.816;9.482;2023-02-28T12:35:34;9.60;;;8.18;;
69956;SDS011;57283;54.816;9.482;2023-02-28T12:38:05;8.95;;;6.55;;
69956;SDS011;57283;54.816;9.482;2023-02-28T12:40:44;9.95;;;7.30;;
69956;SDS011;57283;54.816;9.482;2023-02-28T12:43:16;9.47;;;7.40;;
69956;SDS011;57283;54.816;9.482;2023-02-28T12:45:46;9.93;;;7.30;;
69956;SDS011;57283;54.816;9.482;2023-02-28T12:48:20;10.52;;;7.78;;
69956;SDS011;57283;54.816;9.482;2023-02-28T12:50:53;9.15;;;7.68;;
69956;SDS011;57283;54.816;9.482;2023-02-28T12:53:23;10.65;;;7.22;;
69956;SDS011;57283;54.816;9.482;2023-02-28T12:56:01;10.47;;;7.10;;
69956;SDS011;57283;54.816;9.482;2023-02-28T12:58:37;9.30;;;7.43;;
69956;SDS011;57283;54.816;9.482;2023-02-28T13:01:17;9.02;;;7.25;;
69956;SDS011;57283;54.816;9.482;2023-02-28T13:04:08;11.18;;;7.50;;
69956;SDS011;57283;54.816;9.482;2023-02-28T13:06:59;9.70;;;6.97;;
69956;SDS011;57283;54.816;9.482;2023-02-28T13:09:57;10.20;;;6.93;;
69956;SDS011;57283;54.816;9.482;2023-02-28T13:12:29;9.32;;;6.50;;
69956;SDS011;57283;54.816;9.482;2023-02-28T13:15:04;8.98;;;6.47;;
69956;SDS011;57283;54.816;9.482;2023-02-28T13:17:38;11.30;;;7.00;;
69956;SDS011;57283;54.816;9.482;2023-02-28T13:20:14;8.80;;;6.75;;
69956;SDS011;57283;54.816;9.482;2023-02-28T13:22:44;9.00;;;6.90;;
69956;SDS011;57283;54.816;9.482;2023-02-28T13:34:36;8.90;;;6.38;;
69956;SDS011;57283;54.816;9.482;2023-02-28T13:37:32;8.80;;;5.97;;
69956;SDS011;57283;54.816;9.482;2023-02-28T13:43:05;9.13;;;6.35;;
69956;SDS011;57283;54.816;9.482;2023-02-28T13:45:35;9.88;;;6.60;;
69956;SDS011;57283;54.816;9.482;2023-02-28T13:48:12;10.45;;;6.80;;
69956;SDS011;57283;54.816;9.482;2023-02-28T13:50:46;9.43;;;6.73;;
69956;SDS011;57283;54.816;9.482;2023-02-28T13:56:24;9.93;;;6.55;;
69956;SDS011;57283;54.816;9.482;2023-02-28T13:58:59;9.75;;;6.38;;
69956;SDS011;57283;54.816;9.482;2023-02-28T14:01:37;9.75;;;6.80;;
69956;SDS011;57283;54.816;9.482;2023-02-28T14:07:21;10.43;;;6.50;;
69956;SDS011;57283;54.816;9.482;2023-02-28T14:09:56;9.63;;;6.65;;
69956;SDS011;57283;54.816;9.482;2023-02-28T14:18:21;11.17;;;6.77;;
69956;SDS011;57283;54.816;9.482;2023-02-28T14:20:54;10.45;;;6.88;;
69956;SDS011;57283;54.816;9.482;2023-02-28T14:23:39;11.18;;;6.70;;
69956;SDS011;57283;54.816;9.482;2023-02-28T14:26:30;11.18;;;6.80;;
69956;SDS011;57283;54.816;9.482;2023-02-28T14:29:16;10.43;;;6.32;;
69956;SDS011;57283;54.816;9.482;2023-02-28T14:32:05;9.73;;;6.30;;
69956;SDS011;57283;54.816;9.482;2023-02-28T14:34:42;10.68;;;6.40;;
69956;SDS011;57283;54.816;9.482;2023-02-28T14:37:18;12.77;;;6.20;;
69956;SDS011;57283;54.816;9.482;2023-02-28T14:39:51;9.60;;;5.53;;
69956;SDS011;57283;54.816;9.482;2023-02-28T14:42:27;10.95;;;5.90;;
69956;SDS011;57283;54.816;9.482;2023-02-28T14:44:56;11.60;;;6.17;;
69956;SDS011;57283;54.816;9.482;2023-02-28T14:47:25;10.77;;;5.85;;
69956;SDS011;57283;54.816;9.482;2023-02-28T14:49:56;11.27;;;5.40;;
69956;SDS011;57283;54.816;9.482;2023-02-28T14:52:26;10.77;;;5.40;;
69956;SDS011;57283;54.816;9.482;2023-02-28T14:54:57;9.75;;;5.32;;
69956;SDS011;57283;54.816;9.482;2023-02-28T14:57:28;10.13;;;4.97;;
69956;SDS011;57283;54.816;9.482;2023-02-28T14:59:58;9.55;;;4.90;;
69956;SDS011;57283;54.816;9.482;2023-02-28T15:02:37;12.60;;;5.30;;
69956;SDS011;57283;54.816;9.482;2023-02-28T15:05:15;10.27;;;5.20;;
69956;SDS011;57283;54.816;9.482;2023-02-28T15:07:49;11.00;;;5.07;;
69956;SDS011;57283;54.816;9.482;2023-02-28T15:10:30;10.57;;;4.40;;
69956;SDS011;57283;54.816;9.482;2023-02-28T15:12:59;9.98;;;4.45;;
69956;SDS011;57283;54.816;9.482;2023-02-28T15:15:33;11.68;;;4.85;;
69956;SDS011;57283;54.816;9.482;2023-02-28T15:18:26;9.68;;;4.40;;
69956;SDS011;57283;54.816;9.482;2023-02-28T15:20:59;9.70;;;4.78;;
69956;SDS011;57283;54.816;9.482;2023-02-28T15:23:32;10.63;;;4.40;;
69956;SDS011;57283;54.816;9.482;2023-02-28T15:26:03;11.10;;;4.75;;
69956;SDS011;57283;54.816;9.482;2023-02-28T15:28:32;9.32;;;4.90;;
69956;SDS011;57283;54.816;9.482;2023-02-28T15:31:01;10.43;;;4.30;;
69956;SDS011;57283;54.816;9.482;2023-02-28T15:33:30;12.00;;;4.45;;
69956;SDS011;57283;54.816;9.482;2023-02-28T15:36:03;11.60;;;4.40;;
69956;SDS011;57283;54.816;9.482;2023-02-28T15:38:34;9.18;;;4.68;;
69956;SDS011;57283;54.816;9.482;2023-02-28T15:41:04;9.10;;;4.28;;
69956;SDS011;57283;54.816;9.482;2023-02-28T15:43:36;11.25;;;4.28;;
69956;SDS011;57283;54.816;9.482;2023-02-28T15:46:06;9.88;;;4.07;;
69956;SDS011;57283;54.816;9.482;2023-02-28T15:48:37;9.03;;;4.17;;
69956;SDS011;57283;54.816;9.482;2023-02-28T15:51:14;11.50;;;4.60;;